»·PEaware :: N1854T KSMX-KBFL

N1854T :: KSMX-KBFL

FLIGHT INFORMATION

Flight Status: Arrived
Operator: Privately registered:
United States
More flights under this callsign
Pilot: Nick B. (33587)
Aircraft: CESSNA 172 SKYHAWK
(C172)
More flights by this aircraft type
Origin: KSMX Santa Maria Pub/Capt Hancock
United States
Destination: KBFL Meadows
United States
More flights between these airports :: More routes between these airports
Route: FLW
File this flight plan on PilotEdge
Remarks:
Altitude:
(Current/Filed)
7,500ft
Speed:
(Current/Filed)
100kts
Departed: 21-Feb-21 10:03 PM
Arrived: 21-Feb-21 10:58 PM
Distance/Time
Traveled:
6875nm/0:55
Distance/Time
To Go:
Arrived

Flight Plot

Page will automatically refresh every two minutes.


Map Options




Map Legend


Flown Route
Filed Route
Departure Airport
Arrival Airport
Navaid (VOR, NDB)
Fix

Horizontal Profiles

Position Reports

Time Latitude Longitude Heading Altitude Ground
Speed
21-Feb-21 21:56 34.896739 -120.446345 281 255ft 0kts
21-Feb-21 21:57 34.896739 -120.446345 281 255ft 0kts
21-Feb-21 21:58 34.896739 -120.446345 281 255ft 0kts
21-Feb-21 21:59 34.896196 -120.447445 135 255ft 15kts
21-Feb-21 22:00 34.893636 -120.445266 180 263ft 0kts
21-Feb-21 22:01 34.893636 -120.445266 180 263ft 0kts
21-Feb-21 22:02 34.898050 -120.452103 317 377ft 80kts
21-Feb-21 22:03 34.915045 -120.456725 76 1355ft 82kts
21-Feb-21 22:04 34.920360 -120.429639 76 2274ft 82kts
21-Feb-21 22:05 34.928258 -120.402927 76 3129ft 85kts
21-Feb-21 22:06 34.934578 -120.375115 73 3949ft 85kts
21-Feb-21 22:07 34.938192 -120.346257 83 4714ft 87kts
21-Feb-21 22:08 34.942672 -120.317089 77 5465ft 88kts
21-Feb-21 22:09 34.954242 -120.290658 59 6171ft 89kts
21-Feb-21 22:10 34.967394 -120.264938 52 6902ft 89kts
21-Feb-21 22:11 34.979512 -120.237467 61 7423ft 100kts
21-Feb-21 22:12 34.985547 -120.203837 86 7497ft 109kts
21-Feb-21 22:13 34.995021 -120.168567 67 7503ft 111kts
21-Feb-21 22:14 35.006328 -120.133321 67 7499ft 110kts
21-Feb-21 22:15 35.017569 -120.098747 67 7500ft 110kts
21-Feb-21 22:16 35.028867 -120.064012 68 7494ft 109kts
21-Feb-21 22:17 35.040161 -120.029203 67 7494ft 110kts
21-Feb-21 22:18 35.051282 -119.994897 68 7500ft 108kts
21-Feb-21 22:19 35.062401 -119.960556 68 7501ft 109kts
21-Feb-21 22:20 35.073607 -119.925903 68 7501ft 109kts
21-Feb-21 22:21 35.084733 -119.891461 68 7501ft 109kts
21-Feb-21 22:22 35.096529 -119.856900 61 7497ft 109kts
21-Feb-21 22:23 35.110748 -119.824096 62 7496ft 109kts
21-Feb-21 22:24 35.124747 -119.791274 62 7500ft 108kts
21-Feb-21 22:25 35.138682 -119.758458 62 7500ft 109kts
21-Feb-21 22:26 35.152686 -119.725477 62 7500ft 109kts
21-Feb-21 22:27 35.166813 -119.692188 62 7500ft 110kts
21-Feb-21 22:28 35.181037 -119.658632 62 7499ft 111kts
21-Feb-21 22:29 35.195097 -119.625433 62 7498ft 110kts
21-Feb-21 22:30 35.209220 -119.592052 62 7500ft 110kts
21-Feb-21 22:31 35.223338 -119.558645 62 7499ft 110kts
21-Feb-21 22:32 35.237461 -119.525193 62 7500ft 110kts
21-Feb-21 22:33 35.252565 -119.492616 55 7516ft 110kts
21-Feb-21 22:34 35.271529 -119.462992 51 7356ft 111kts
21-Feb-21 22:35 35.291823 -119.434391 45 6905ft 110kts
21-Feb-21 22:36 35.310777 -119.404657 53 6438ft 110kts
21-Feb-21 22:37 35.328726 -119.374381 56 5975ft 109kts
21-Feb-21 22:38 35.344601 -119.342587 59 5485ft 109kts
21-Feb-21 22:39 35.358675 -119.309834 63 4969ft 108kts
21-Feb-21 22:40 35.371928 -119.276811 62 4488ft 107kts
21-Feb-21 22:41 35.386662 -119.245154 60 4039ft 106kts
21-Feb-21 22:42 35.401097 -119.213578 59 3597ft 106kts
21-Feb-21 22:43 35.415024 -119.181836 62 3010ft 105kts
21-Feb-21 22:44 35.426819 -119.149351 74 2378ft 104kts
21-Feb-21 22:45 35.432973 -119.114798 84 1735ft 103kts
21-Feb-21 22:50 35.460144 -119.093225 311 1571ft 107kts
21-Feb-21 22:51 35.468149 -119.119995 205 1470ft 96kts
21-Feb-21 22:52 35.448206 -119.099709 136 1360ft 93kts
21-Feb-21 22:54 35.431588 -119.079236 138 1393ft 84kts
21-Feb-21 22:55 35.415449 -119.060538 137 1276ft 77kts
21-Feb-21 22:56 35.416652 -119.044186 359 923ft 80kts
21-Feb-21 22:57 35.432599 -119.058268 317 483ft 56kts
21-Feb-21 22:58 35.435017 -119.059748 39 493ft 3kts
21-Feb-21 22:59 35.434635 -119.054899 136 488ft 35kts
21-Feb-21 23:00 35.431422 -119.049351 118 485ft 10kts
21-Feb-21 23:01 35.431178 -119.048301 132 485ft 0kts
21-Feb-21 23:02 35.431178 -119.048301 132 485ft 0kts
21-Feb-21 23:03 35.431178 -119.048301 132 485ft 0kts
21-Feb-21 23:04 0.000408 0.013975 0 3ft 0kts
21-Feb-21 23:05 0.000408 0.013975 0 3ft 0kts

Navigation Log

Ident Type
Flight plan parsing failed, navigation log unavailable